Time,TemperatureF,DewpointF,PressureIn,WindDirection,WindDirectionDegrees,WindSpeedMPH,WindSpeedGustMPH,Humidity,HourlyPrecipIn,Conditions,Clouds,dailyrainin,SoftwareType,DateUTC
2013-02-17 00:02:00,20.0,12.0,30.07,NNE,20,4.0,5.0,71,0.00,,,0.00,,2013-02-17 00:02:00,
2013-02-17 00:12:00,20.0,12.0,30.07,NNE,20,4.0,5.0,71,0.00,,,0.00,,2013-02-17 00:12:00,
2013-02-17 00:21:00,19.0,11.0,30.07,North,9,0.0,7.0,71,0.00,,,0.00,,2013-02-17 00:21:00,
2013-02-17 00:31:00,19.0,12.0,30.07,NNE,20,2.0,5.0,73,0.00,,,0.00,,2013-02-17 00:31:00,
2013-02-17 00:41:00,19.0,12.0,30.07,NNE,20,2.0,5.0,73,0.00,,,0.00,,2013-02-17 00:41:00,
2013-02-17 00:52:00,18.0,11.0,30.08,North,11,0.0,3.0,73,0.00,,,0.00,,2013-02-17 00:52:00,
2013-02-17 01:01:00,18.0,11.0,30.09,NNE,15,0.0,3.0,74,0.00,,,0.00,,2013-02-17 01:01:00,
2013-02-17 01:11:00,18.0,11.0,30.09,NNE,15,0.0,3.0,74,0.00,,,0.00,,2013-02-17 01:11:00,
2013-02-17 01:21:00,17.0,10.0,30.09,NNE,15,0.0,3.0,74,0.00,,,0.00,,2013-02-17 01:21:00,
2013-02-17 01:31:00,17.0,10.0,30.09,NNE,15,0.0,1.0,75,0.00,,,0.00,,2013-02-17 01:31:00,
2013-02-17 01:41:00,17.0,10.0,30.09,NNE,15,0.0,1.0,75,0.00,,,0.00,,2013-02-17 01:41:00,
2013-02-17 01:52:00,17.0,10.0,30.09,NNE,15,1.0,2.0,75,0.00,,,0.00,,2013-02-17 01:52:00,
2013-02-17 02:01:00,16.0,9.0,30.09,NNE,15,0.0,3.0,75,0.00,,,0.00,,2013-02-17 02:01:00,
2013-02-17 02:11:00,16.0,9.0,30.09,NNE,15,0.0,3.0,75,0.00,,,0.00,,2013-02-17 02:11:00,
2013-02-17 02:21:00,16.0,9.0,30.09,NNE,15,0.0,1.0,75,0.00,,,0.00,,2013-02-17 02:21:00,
2013-02-17 02:31:00,16.0,10.0,30.10,NNE,15,0.0,1.0,76,0.00,,,0.00,,2013-02-17 02:31:00,
2013-02-17 02:41:00,16.0,10.0,30.10,NNE,15,0.0,1.0,76,0.00,,,0.00,,2013-02-17 02:41:00,
2013-02-17 02:52:00,15.0,9.0,30.10,NNE,15,0.0,0.0,76,0.00,,,0.00,,2013-02-17 02:52:00,
2013-02-17 03:01:00,15.0,9.0,30.10,NNE,15,0.0,0.0,76,0.00,,,0.00,,2013-02-17 03:01:00,
2013-02-17 03:11:00,15.0,9.0,30.10,NNE,15,0.0,0.0,76,0.00,,,0.00,,2013-02-17 03:11:00,
2013-02-17 03:21:00,14.0,8.0,30.10,NNE,15,0.0,0.0,77,0.00,,,0.00,,2013-02-17 03:21:00,
2013-02-17 03:31:00,14.0,8.0,30.10,NNE,15,0.0,0.0,78,0.00,,,0.00,,2013-02-17 03:31:00,
2013-02-17 03:42:00,14.0,8.0,30.10,NNE,15,0.0,0.0,78,0.00,,,0.00,,2013-02-17 03:42:00,
2013-02-17 03:52:00,14.0,8.0,30.10,NNE,15,0.0,0.0,78,0.00,,,0.00,,2013-02-17 03:52:00,
2013-02-17 04:01:00,14.0,8.0,30.10,NNE,15,0.0,0.0,78,0.00,,,0.00,,2013-02-17 04:01:00,
2013-02-17 04:11:00,14.0,8.0,30.10,NNE,15,0.0,0.0,78,0.00,,,0.00,,2013-02-17 04:11:00,
2013-02-17 04:21:00,14.0,8.0,30.10,NNE,15,0.0,0.0,78,0.00,,,0.00,,2013-02-17 04:21:00,
2013-02-17 04:31:00,14.0,8.0,30.10,NNE,15,0.0,0.0,78,0.00,,,0.00,,2013-02-17 04:31:00,
2013-02-17 04:41:00,14.0,8.0,30.10,NNE,15,0.0,0.0,78,0.00,,,0.00,,2013-02-17 04:41:00,
2013-02-17 04:52:00,14.0,9.0,30.10,NNE,15,0.0,0.0,79,0.00,,,0.00,,2013-02-17 04:52:00,
2013-02-17 05:01:00,14.0,9.0,30.10,NNE,15,0.0,0.0,80,0.00,,,0.00,,2013-02-17 05:01:00,
2013-02-17 05:12:00,14.0,9.0,30.10,NNE,15,0.0,1.0,80,0.00,,,0.00,,2013-02-17 05:12:00,
2013-02-17 05:22:00,14.0,9.0,30.10,NNE,15,0.0,1.0,80,0.00,,,0.00,,2013-02-17 05:22:00,
2013-02-17 05:32:00,14.0,9.0,30.09,NNE,31,0.0,0.0,81,0.00,,,0.00,,2013-02-17 05:32:00,
2013-02-17 05:42:00,14.0,9.0,30.09,NNE,31,0.0,0.0,81,0.00,,,0.00,,2013-02-17 05:42:00,
2013-02-17 05:52:00,14.0,9.0,30.10,NNE,31,0.0,0.0,81,0.00,,,0.00,,2013-02-17 05:52:00,
2013-02-17 06:02:00,14.0,9.0,30.10,NNE,31,0.0,0.0,80,0.00,,,0.00,,2013-02-17 06:02:00,
2013-02-17 06:11:00,14.0,9.0,30.10,NNE,31,0.0,0.0,80,0.00,,,0.00,,2013-02-17 06:11:00,
2013-02-17 06:21:00,14.0,9.0,30.09,NNE,31,0.0,0.0,80,0.00,,,0.00,,2013-02-17 06:21:00,
2013-02-17 06:31:00,13.0,8.0,30.09,NNE,31,0.0,0.0,80,0.00,,,0.00,,2013-02-17 06:31:00,
2013-02-17 06:41:00,13.0,8.0,30.09,NNE,31,0.0,0.0,80,0.00,,,0.00,,2013-02-17 06:41:00,
2013-02-17 06:52:00,13.0,8.0,30.09,NNE,31,0.0,0.0,81,0.00,,,0.00,,2013-02-17 06:52:00,
2013-02-17 07:01:00,13.0,9.0,30.09,NNE,31,0.0,0.0,82,0.00,,,0.00,,2013-02-17 07:01:00,
2013-02-17 07:11:00,13.0,9.0,30.09,NNE,31,0.0,0.0,83,0.00,,,0.00,,2013-02-17 07:11:00,
2013-02-17 07:21:00,13.0,9.0,30.09,NNE,31,0.0,0.0,83,0.00,,,0.00,,2013-02-17 07:21:00,
2013-02-17 07:31:00,12.0,8.0,30.09,NNE,31,0.0,0.0,84,0.00,,,0.00,,2013-02-17 07:31:00,
2013-02-17 07:41:00,12.0,8.0,30.09,NNE,31,0.0,0.0,84,0.00,,,0.00,,2013-02-17 07:41:00,
2013-02-17 07:52:00,12.0,8.0,30.09,NNE,31,0.0,0.0,84,0.00,,,0.00,,2013-02-17 07:52:00,
2013-02-17 08:01:00,12.0,8.0,30.09,NNE,31,0.0,0.0,85,0.00,,,0.00,,2013-02-17 08:01:00,
2013-02-17 08:11:00,12.0,8.0,30.09,NNE,31,0.0,0.0,85,0.00,,,0.00,,2013-02-17 08:11:00,
2013-02-17 08:21:00,12.0,8.0,30.09,NNE,31,0.0,0.0,85,0.00,,,0.00,,2013-02-17 08:21:00,
2013-02-17 08:31:00,12.0,8.0,30.09,NNE,31,0.0,1.0,85,0.00,,,0.00,,2013-02-17 08:31:00,
2013-02-17 08:42:00,12.0,8.0,30.09,NNE,31,0.0,1.0,85,0.00,,,0.00,,2013-02-17 08:42:00,
2013-02-17 08:52:00,12.0,8.0,30.08,NNE,31,0.0,3.0,85,0.00,,,0.00,,2013-02-17 08:52:00,
2013-02-17 09:01:00,12.0,8.0,30.09,NNE,31,0.0,0.0,84,0.00,,,0.00,,2013-02-17 09:01:00,
2013-02-17 09:11:00,12.0,8.0,30.09,NNE,31,0.0,0.0,84,0.00,,,0.00,,2013-02-17 09:11:00,
2013-02-17 09:21:00,12.0,8.0,30.09,NNE,31,0.0,2.0,84,0.00,,,0.00,,2013-02-17 09:21:00,
2013-02-17 09:31:00,12.0,8.0,30.09,NNE,31,0.0,2.0,85,0.00,,,0.00,,2013-02-17 09:31:00,
2013-02-17 09:41:00,12.0,8.0,30.09,NNE,31,0.0,2.0,85,0.00,,,0.00,,2013-02-17 09:41:00,
2013-02-17 09:52:00,12.0,8.0,30.09,NNE,31,0.0,2.0,85,0.00,,,0.00,,2013-02-17 09:52:00,
2013-02-17 10:01:00,12.0,8.0,30.09,NNE,31,0.0,0.0,84,0.00,,,0.00,,2013-02-17 10:01:00,
2013-02-17 10:11:00,12.0,8.0,30.09,NNE,31,0.0,0.0,84,0.00,,,0.00,,2013-02-17 10:11:00,
2013-02-17 10:21:00,11.0,7.0,30.09,NNE,31,0.0,0.0,84,0.00,,,0.00,,2013-02-17 10:21:00,
2013-02-17 10:31:00,11.0,7.0,30.09,NNE,31,0.0,0.0,84,0.00,,,0.00,,2013-02-17 10:31:00,
2013-02-17 10:41:00,11.0,7.0,30.09,NNE,31,0.0,0.0,84,0.00,,,0.00,,2013-02-17 10:41:00,
2013-02-17 10:52:00,11.0,7.0,30.09,NNE,31,1.0,2.0,85,0.00,,,0.00,,2013-02-17 10:52:00,
2013-02-17 11:01:00,11.0,7.0,30.09,NNE,31,1.0,1.0,84,0.00,,,0.00,,2013-02-17 11:01:00,
2013-02-17 11:11:00,11.0,7.0,30.09,NNE,31,1.0,1.0,84,0.00,,,0.00,,2013-02-17 11:11:00,
2013-02-17 11:21:00,12.0,8.0,30.09,NNE,31,0.0,2.0,84,0.00,,,0.00,,2013-02-17 11:21:00,
2013-02-17 11:32:00,12.0,8.0,30.10,NNE,31,0.0,2.0,83,0.00,,,0.00,,2013-02-17 11:32:00,
2013-02-17 11:42:00,12.0,8.0,30.10,NNE,31,0.0,2.0,83,0.00,,,0.00,,2013-02-17 11:42:00,
2013-02-17 11:52:00,12.0,8.0,30.10,NNE,31,1.0,2.0,83,0.00,,,0.00,,2013-02-17 11:52:00,
2013-02-17 12:03:00,12.0,8.0,30.10,NNE,31,3.0,3.0,82,0.00,,,0.00,,2013-02-17 12:03:00,
2013-02-17 12:11:00,12.0,8.0,30.10,NNE,31,3.0,3.0,82,0.00,,,0.00,,2013-02-17 12:11:00,
2013-02-17 12:22:00,12.0,7.0,30.09,NNE,31,2.0,3.0,81,0.00,,,0.00,,2013-02-17 12:22:00,
2013-02-17 12:32:00,12.0,7.0,30.09,NNE,31,2.0,3.0,81,0.00,,,0.00,,2013-02-17 12:32:00,
2013-02-17 12:42:00,12.0,7.0,30.09,NNE,31,2.0,3.0,81,0.00,,,0.00,,2013-02-17 12:42:00,
2013-02-17 12:52:00,12.0,7.0,30.09,NNE,31,0.0,3.0,81,0.00,,,0.00,,2013-02-17 12:52:00,
2013-02-17 13:02:00,12.0,7.0,30.09,NNE,31,2.0,4.0,81,0.00,,,0.00,,2013-02-17 13:02:00,
2013-02-17 13:12:00,12.0,7.0,30.09,NNE,31,2.0,4.0,81,0.00,,,0.00,,2013-02-17 13:12:00,
2013-02-17 13:21:00,12.0,8.0,30.09,NNE,31,0.0,3.0,82,0.00,,,0.00,,2013-02-17 13:21:00,
2013-02-17 13:32:00,12.0,8.0,30.09,NNE,31,0.0,3.0,82,0.00,,,0.00,,2013-02-17 13:32:00,
2013-02-17 13:41:00,12.0,8.0,30.09,NNE,31,0.0,3.0,82,0.00,,,0.00,,2013-02-17 13:41:00,
2013-02-17 13:52:00,13.0,9.0,30.09,ESE,112,4.0,5.0,83,0.00,,,0.00,,2013-02-17 13:52:00,
2013-02-17 14:01:00,14.0,10.0,30.09,ESE,118,2.0,6.0,83,0.00,,,0.00,,2013-02-17 14:01:00,
2013-02-17 14:11:00,14.0,10.0,30.09,ESE,118,2.0,6.0,83,0.00,,,0.00,,2013-02-17 14:11:00,
2013-02-17 14:21:00,15.0,10.0,30.09,SSE,150,6.0,9.0,81,0.00,,,0.00,,2013-02-17 14:21:00,
2013-02-17 14:32:00,16.0,10.0,30.09,SSE,150,4.0,9.0,78,0.00,,,0.00,,2013-02-17 14:32:00,
2013-02-17 14:42:00,16.0,10.0,30.09,SSE,150,4.0,9.0,78,0.00,,,0.00,,2013-02-17 14:42:00,
2013-02-17 14:53:00,17.0,11.0,30.09,SSE,152,5.0,10.0,76,0.00,,,0.00,,2013-02-17 14:53:00,
2013-02-17 15:02:00,18.0,11.0,30.09,SE,126,6.0,11.0,74,0.00,,,0.00,,2013-02-17 15:02:00,
2013-02-17 15:11:00,18.0,11.0,30.09,SE,126,6.0,11.0,74,0.00,,,0.00,,2013-02-17 15:11:00,
2013-02-17 15:21:00,19.0,12.0,30.09,SE,144,8.0,10.0,73,0.00,,,0.00,,2013-02-17 15:21:00,
2013-02-17 15:32:00,20.0,13.0,30.09,SSE,163,5.0,11.0,73,0.00,,,0.00,,2013-02-17 15:32:00,
2013-02-17 15:41:00,20.0,13.0,30.09,SSE,163,5.0,11.0,73,0.00,,,0.00,,2013-02-17 15:41:00,
2013-02-17 15:52:00,20.0,11.0,30.09,SSE,150,2.0,12.0,68,0.00,,,0.00,,2013-02-17 15:52:00,
2013-02-17 16:01:00,21.0,12.0,30.09,SSE,151,6.0,13.0,68,0.00,,,0.00,,2013-02-17 16:01:00,
2013-02-17 16:11:00,21.0,12.0,30.09,SSE,151,6.0,13.0,68,0.00,,,0.00,,2013-02-17 16:11:00,
2013-02-17 16:21:00,22.0,13.0,30.09,SSE,149,7.0,12.0,67,0.00,,,0.00,,2013-02-17 16:21:00,
2013-02-17 16:32:00,23.0,13.0,30.09,SE,143,7.0,12.0,66,0.00,,,0.00,,2013-02-17 16:32:00,
2013-02-17 16:41:00,23.0,13.0,30.09,SE,143,7.0,12.0,66,0.00,,,0.00,,2013-02-17 16:41:00,
2013-02-17 16:52:00,24.0,14.0,30.10,SSE,150,9.0,14.0,66,0.00,,,0.00,,2013-02-17 16:52:00,
2013-02-17 17:02:00,24.0,14.0,30.10,SE,144,7.0,11.0,66,0.00,,,0.00,,2013-02-17 17:02:00,
2013-02-17 17:11:00,24.0,14.0,30.10,SE,144,7.0,11.0,66,0.00,,,0.00,,2013-02-17 17:11:00,
2013-02-17 17:21:00,25.0,15.0,30.10,SSE,149,10.0,12.0,66,0.00,,,0.00,,2013-02-17 17:21:00,
2013-02-17 17:32:00,26.0,16.0,30.10,SE,129,6.0,11.0,65,0.00,,,0.00,,2013-02-17 17:32:00,
2013-02-17 17:41:00,26.0,16.0,30.10,SE,129,6.0,11.0,65,0.00,,,0.00,,2013-02-17 17:41:00,
2013-02-17 17:52:00,27.0,16.0,30.10,SE,144,4.0,13.0,63,0.00,,,0.00,,2013-02-17 17:52:00,
2013-02-17 18:02:00,27.0,15.0,30.09,SE,130,12.0,14.0,61,0.00,,,0.00,,2013-02-17 18:02:00,
2013-02-17 18:11:00,27.0,15.0,30.09,SE,130,12.0,14.0,61,0.00,,,0.00,,2013-02-17 18:11:00,
2013-02-17 18:22:00,28.0,16.0,30.08,SSE,150,7.0,13.0,61,0.00,,,0.00,,2013-02-17 18:22:00,
2013-02-17 18:33:00,28.0,16.0,30.07,SE,145,11.0,13.0,60,0.00,,,0.00,,2013-02-17 18:33:00,
2013-02-17 18:42:00,28.0,16.0,30.07,SE,145,11.0,13.0,60,0.00,,,0.00,,2013-02-17 18:42:00,
2013-02-17 18:52:00,29.0,17.0,30.06,SE,128,7.0,13.0,60,0.00,,,0.00,,2013-02-17 18:52:00,
2013-02-17 19:01:00,30.0,17.0,30.05,SE,129,4.0,12.0,58,0.00,,,0.00,,2013-02-17 19:01:00,
2013-02-17 19:11:00,30.0,17.0,30.05,SE,129,4.0,12.0,58,0.00,,,0.00,,2013-02-17 19:11:00,
2013-02-17 19:21:00,30.0,17.0,30.04,ESE,115,9.0,14.0,58,0.00,,,0.00,,2013-02-17 19:21:00,
2013-02-17 19:32:00,30.0,18.0,30.04,SE,143,11.0,15.0,60,0.00,,,0.00,,2013-02-17 19:32:00,
2013-02-17 19:42:00,30.0,18.0,30.04,SE,143,11.0,15.0,60,0.00,,,0.00,,2013-02-17 19:42:00,
2013-02-17 19:52:00,31.0,18.0,30.03,SSE,151,11.0,13.0,59,0.00,,,0.00,,2013-02-17 19:52:00,
2013-02-17 20:02:00,31.0,18.0,30.02,SE,146,9.0,15.0,59,0.00,,,0.00,,2013-02-17 20:02:00,
2013-02-17 20:11:00,31.0,18.0,30.02,SE,146,9.0,15.0,59,0.00,,,0.00,,2013-02-17 20:11:00,
2013-02-17 20:21:00,32.0,20.0,30.01,SSE,148,12.0,16.0,60,0.00,,,0.00,,2013-02-17 20:21:00,
2013-02-17 20:32:00,32.0,20.0,30.01,SSE,153,10.0,14.0,60,0.00,,,0.00,,2013-02-17 20:32:00,
2013-02-17 20:42:00,32.0,20.0,30.01,SSE,153,10.0,14.0,60,0.00,,,0.00,,2013-02-17 20:42:00,
2013-02-17 20:52:00,32.0,20.0,29.99,SSE,147,5.0,15.0,62,0.00,,,0.00,,2013-02-17 20:52:00,
2013-02-17 21:01:00,32.0,20.0,29.99,SE,144,9.0,15.0,60,0.00,,,0.00,,2013-02-17 21:01:00,
2013-02-17 21:11:00,32.0,20.0,29.99,SE,144,9.0,15.0,60,0.00,,,0.00,,2013-02-17 21:11:00,
2013-02-17 21:21:00,33.0,21.0,29.98,SE,140,12.0,16.0,62,0.00,,,0.00,,2013-02-17 21:21:00,
2013-02-17 21:31:00,33.0,21.0,29.98,ESE,122,8.0,14.0,62,0.00,,,0.00,,2013-02-17 21:31:00,
2013-02-17 21:41:00,33.0,21.0,29.98,ESE,122,8.0,14.0,62,0.00,,,0.00,,2013-02-17 21:41:00,
2013-02-17 21:53:00,34.0,22.0,29.97,SSE,154,8.0,15.0,62,0.00,,,0.00,,2013-02-17 21:53:00,
2013-02-17 22:01:00,33.0,22.0,29.97,SSE,150,9.0,14.0,63,0.00,,,0.00,,2013-02-17 22:01:00,
2013-02-17 22:12:00,33.0,22.0,29.97,SSE,150,9.0,14.0,63,0.00,,,0.00,,2013-02-17 22:12:00,
2013-02-17 22:21:00,33.0,22.0,29.96,SE,142,13.0,17.0,63,0.00,,,0.00,,2013-02-17 22:21:00,
2013-02-17 22:32:00,34.0,23.0,29.96,SE,144,11.0,15.0,63,0.00,,,0.00,,2013-02-17 22:32:00,
2013-02-17 22:42:00,34.0,23.0,29.96,SE,144,11.0,15.0,63,0.00,,,0.00,,2013-02-17 22:42:00,
2013-02-17 22:52:00,34.0,23.0,29.96,SE,143,12.0,14.0,63,0.00,,,0.00,,2013-02-17 22:52:00,
2013-02-17 23:02:00,33.0,22.0,29.95,SE,146,12.0,15.0,64,0.00,,,0.00,,2013-02-17 23:02:00,
2013-02-17 23:11:00,33.0,22.0,29.95,SE,146,12.0,15.0,64,0.00,,,0.00,,2013-02-17 23:11:00,
2013-02-17 23:21:00,33.0,23.0,29.94,SE,146,14.0,15.0,65,0.00,,,0.00,,2013-02-17 23:21:00,
2013-02-17 23:32:00,33.0,23.0,29.94,ESE,121,11.0,14.0,67,0.00,,,0.00,,2013-02-17 23:32:00,
2013-02-17 23:42:00,33.0,23.0,29.94,ESE,121,11.0,14.0,67,0.00,,,0.00,,2013-02-17 23:42:00,
2013-02-17 23:52:00,32.0,23.0,29.93,ESE,117,6.0,16.0,69,0.00,,,0.00,,2013-02-17 23:52:00,